sensor_id;sensor_type;location;lat;lon;timestamp;temperature;humidity
21487;DHT22;10905;50.822;4.336;2023-04-15T00:00:45;11.60;99.90
21487;DHT22;10905;50.822;4.336;2023-04-15T00:03:11;11.60;99.90
21487;DHT22;10905;50.822;4.336;2023-04-15T00:05:36;11.60;99.90
21487;DHT22;10905;50.822;4.336;2023-04-15T00:08:02;11.60;99.90
21487;DHT22;10905;50.822;4.336;2023-04-15T00:10:28;11.60;99.90
21487;DHT22;10905;50.822;4.336;2023-04-15T00:12:54;11.70;99.90
21487;DHT22;10905;50.822;4.336;2023-04-15T00:15:19;11.60;99.90
21487;DHT22;10905;50.822;4.336;2023-04-15T00:17:45;11.60;99.90
21487;DHT22;10905;50.822;4.336;2023-04-15T00:20:11;11.50;99.90
21487;DHT22;10905;50.822;4.336;2023-04-15T00:22:37;11.60;99.90
21487;DHT22;10905;50.822;4.336;2023-04-15T00:25:02;11.60;99.90
21487;DHT22;10905;50.822;4.336;2023-04-15T00:27:28;11.60;99.90
21487;DHT22;10905;50.822;4.336;2023-04-15T00:29:54;11.60;99.90
21487;DHT22;10905;50.822;4.336;2023-04-15T00:32:20;11.70;99.90
21487;DHT22;10905;50.822;4.336;2023-04-15T00:34:46;11.60;99.90
21487;DHT22;10905;50.822;4.336;2023-04-15T00:37:12;11.50;99.90
21487;DHT22;10905;50.822;4.336;2023-04-15T00:39:37;11.50;99.90
21487;DHT22;10905;50.822;4.336;2023-04-15T00:42:03;11.40;99.90
21487;DHT22;10905;50.822;4.336;2023-04-15T00:44:29;11.40;99.90
21487;DHT22;10905;50.822;4.336;2023-04-15T00:46:56;11.40;99.90
21487;DHT22;10905;50.822;4.336;2023-04-15T00:49:22;11.40;99.90
21487;DHT22;10905;50.822;4.336;2023-04-15T00:51:49;11.40;99.90
21487;DHT22;10905;50.822;4.336;2023-04-15T00:54:14;11.40;99.90
21487;DHT22;10905;50.822;4.336;2023-04-15T00:56:41;11.30;99.90
21487;DHT22;10905;50.822;4.336;2023-04-15T00:59:07;11.20;99.90
21487;DHT22;10905;50.822;4.336;2023-04-15T01:01:34;11.20;99.90
21487;DHT22;10905;50.822;4.336;2023-04-15T01:04:00;11.20;99.90
21487;DHT22;10905;50.822;4.336;2023-04-15T01:06:26;11.10;99.90
21487;DHT22;10905;50.822;4.336;2023-04-15T01:08:53;11.00;99.90
21487;DHT22;10905;50.822;4.336;2023-04-15T01:11:19;11.00;99.90
21487;DHT22;10905;50.822;4.336;2023-04-15T01:13:45;11.10;99.90
21487;DHT22;10905;50.822;4.336;2023-04-15T01:16:11;11.10;99.90
21487;DHT22;10905;50.822;4.336;2023-04-15T01:18:37;11.00;99.90
21487;DHT22;10905;50.822;4.336;2023-04-15T01:21:04;10.90;99.90
21487;DHT22;10905;50.822;4.336;2023-04-15T01:23:31;11.00;99.90
21487;DHT22;10905;50.822;4.336;2023-04-15T01:25:58;11.00;99.90
21487;DHT22;10905;50.822;4.336;2023-04-15T01:28:24;11.00;99.90
21487;DHT22;10905;50.822;4.336;2023-04-15T01:31:03;10.90;99.90
21487;DHT22;10905;50.822;4.336;2023-04-15T01:33:30;10.90;99.90
21487;DHT22;10905;50.822;4.336;2023-04-15T01:35:56;10.80;99.90
21487;DHT22;10905;50.822;4.336;2023-04-15T01:38:21;10.90;99.90
21487;DHT22;10905;50.822;4.336;2023-04-15T01:40:47;10.90;99.90
21487;DHT22;10905;50.822;4.336;2023-04-15T01:43:13;10.90;99.90
21487;DHT22;10905;50.822;4.336;2023-04-15T01:45:39;10.90;99.90
21487;DHT22;10905;50.822;4.336;2023-04-15T01:48:05;10.90;99.90
21487;DHT22;10905;50.822;4.336;2023-04-15T01:50:31;10.90;99.90
21487;DHT22;10905;50.822;4.336;2023-04-15T01:52:57;10.70;99.90
21487;DHT22;10905;50.822;4.336;2023-04-15T01:55:22;10.80;99.90
21487;DHT22;10905;50.822;4.336;2023-04-15T01:57:48;10.70;99.90
21487;DHT22;10905;50.822;4.336;2023-04-15T02:00:14;10.80;99.90
21487;DHT22;10905;50.822;4.336;2023-04-15T02:02:40;10.80;99.90
21487;DHT22;10905;50.822;4.336;2023-04-15T02:05:06;10.80;99.90
21487;DHT22;10905;50.822;4.336;2023-04-15T02:07:32;10.90;99.90
21487;DHT22;10905;50.822;4.336;2023-04-15T02:09:58;11.00;99.90
21487;DHT22;10905;50.822;4.336;2023-04-15T02:12:23;10.80;99.90
21487;DHT22;10905;50.822;4.336;2023-04-15T02:14:49;10.90;99.90
21487;DHT22;10905;50.822;4.336;2023-04-15T02:17:14;10.80;99.90
21487;DHT22;10905;50.822;4.336;2023-04-15T02:19:40;10.80;99.90
21487;DHT22;10905;50.822;4.336;2023-04-15T02:22:06;10.90;99.90
21487;DHT22;10905;50.822;4.336;2023-04-15T02:24:33;10.90;99.90
21487;DHT22;10905;50.822;4.336;2023-04-15T02:26:59;10.80;99.90
21487;DHT22;10905;50.822;4.336;2023-04-15T02:29:26;10.80;99.90
21487;DHT22;10905;50.822;4.336;2023-04-15T02:31:51;10.70;99.90
21487;DHT22;10905;50.822;4.336;2023-04-15T02:34:17;10.80;99.90
21487;DHT22;10905;50.822;4.336;2023-04-15T02:36:43;10.70;99.90
21487;DHT22;10905;50.822;4.336;2023-04-15T02:39:08;10.70;99.90
21487;DHT22;10905;50.822;4.336;2023-04-15T02:41:34;10.60;99.90
21487;DHT22;10905;50.822;4.336;2023-04-15T02:43:59;10.60;99.90
21487;DHT22;10905;50.822;4.336;2023-04-15T02:46:25;10.70;99.90
21487;DHT22;10905;50.822;4.336;2023-04-15T02:48:51;10.60;99.90
21487;DHT22;10905;50.822;4.336;2023-04-15T02:51:19;10.70;99.90
21487;DHT22;10905;50.822;4.336;2023-04-15T02:53:46;10.80;99.90
21487;DHT22;10905;50.822;4.336;2023-04-15T02:56:12;10.80;99.90
21487;DHT22;10905;50.822;4.336;2023-04-15T02:58:39;10.90;99.90
21487;DHT22;10905;50.822;4.336;2023-04-15T03:01:05;10.90;99.90
21487;DHT22;10905;50.822;4.336;2023-04-15T03:03:33;10.90;99.90
21487;DHT22;10905;50.822;4.336;2023-04-15T03:05:58;10.90;99.90
21487;DHT22;10905;50.822;4.336;2023-04-15T03:08:24;10.80;99.90
21487;DHT22;10905;50.822;4.336;2023-04-15T03:10:50;10.90;99.90
21487;DHT22;10905;50.822;4.336;2023-04-15T03:13:17;10.90;99.90
21487;DHT22;10905;50.822;4.336;2023-04-15T03:15:45;10.80;99.90
21487;DHT22;10905;50.822;4.336;2023-04-15T03:18:11;10.80;99.90
21487;DHT22;10905;50.822;4.336;2023-04-15T03:20:37;10.60;99.90
21487;DHT22;10905;50.822;4.336;2023-04-15T03:23:02;10.70;99.90
21487;DHT22;10905;50.822;4.336;2023-04-15T03:25:28;10.70;99.90
21487;DHT22;10905;50.822;4.336;2023-04-15T03:27:53;10.60;99.90
21487;DHT22;10905;50.822;4.336;2023-04-15T03:30:19;10.60;99.90
21487;DHT22;10905;50.822;4.336;2023-04-15T03:32:45;10.40;99.90
21487;DHT22;10905;50.822;4.336;2023-04-15T03:35:10;10.20;99.90
21487;DHT22;10905;50.822;4.336;2023-04-15T03:37:36;9.90;99.90
21487;DHT22;10905;50.822;4.336;2023-04-15T03:40:02;9.90;99.90
21487;DHT22;10905;50.822;4.336;2023-04-15T03:42:27;9.70;99.90
21487;DHT22;10905;50.822;4.336;2023-04-15T03:44:53;9.80;99.90
21487;DHT22;10905;50.822;4.336;2023-04-15T03:47:19;9.80;99.90
21487;DHT22;10905;50.822;4.336;2023-04-15T03:49:44;9.90;99.90
21487;DHT22;10905;50.822;4.336;2023-04-15T03:52:10;9.90;99.90
21487;DHT22;10905;50.822;4.336;2023-04-15T03:54:36;10.00;99.90
21487;DHT22;10905;50.822;4.336;2023-04-15T03:57:01;9.90;99.90
21487;DHT22;10905;50.822;4.336;2023-04-15T03:59:27;9.80;99.90
21487;DHT22;10905;50.822;4.336;2023-04-15T04:01:53;9.80;99.90
21487;DHT22;10905;50.822;4.336;2023-04-15T04:04:18;9.60;99.90
21487;DHT22;10905;50.822;4.336;2023-04-15T04:06:44;9.50;99.90
21487;DHT22;10905;50.822;4.336;2023-04-15T04:09:10;9.50;99.90
21487;DHT22;10905;50.822;4.336;2023-04-15T04:11:35;9.40;99.90
21487;DHT22;10905;50.822;4.336;2023-04-15T04:14:02;9.20;99.90
21487;DHT22;10905;50.822;4.336;2023-04-15T04:16:27;9.20;99.90
21487;DHT22;10905;50.822;4.336;2023-04-15T04:18:53;9.00;99.90
21487;DHT22;10905;50.822;4.336;2023-04-15T04:21:18;9.00;99.90
21487;DHT22;10905;50.822;4.336;2023-04-15T04:23:45;8.90;99.90
21487;DHT22;10905;50.822;4.336;2023-04-15T04:26:11;8.90;99.90
21487;DHT22;10905;50.822;4.336;2023-04-15T04:28:37;8.90;99.90
21487;DHT22;10905;50.822;4.336;2023-04-15T04:31:05;8.90;99.90
21487;DHT22;10905;50.822;4.336;2023-04-15T04:33:31;8.90;99.90
21487;DHT22;10905;50.822;4.336;2023-04-15T04:35:57;8.90;99.90
21487;DHT22;10905;50.822;4.336;2023-04-15T04:38:23;8.90;99.90
21487;DHT22;10905;50.822;4.336;2023-04-15T04:40:48;8.90;99.90
21487;DHT22;10905;50.822;4.336;2023-04-15T04:43:14;9.00;99.90
21487;DHT22;10905;50.822;4.336;2023-04-15T04:45:40;9.00;99.90
21487;DHT22;10905;50.822;4.336;2023-04-15T04:48:06;9.20;99.90
21487;DHT22;10905;50.822;4.336;2023-04-15T04:50:33;9.20;99.90
21487;DHT22;10905;50.822;4.336;2023-04-15T04:52:59;9.20;99.90
21487;DHT22;10905;50.822;4.336;2023-04-15T04:55:25;9.20;99.90
21487;DHT22;10905;50.822;4.336;2023-04-15T04:57:51;9.20;99.90
21487;DHT22;10905;50.822;4.336;2023-04-15T05:00:17;9.30;99.90
21487;DHT22;10905;50.822;4.336;2023-04-15T05:02:44;9.40;99.90
21487;DHT22;10905;50.822;4.336;2023-04-15T05:05:10;9.40;99.90
21487;DHT22;10905;50.822;4.336;2023-04-15T05:07:36;9.40;99.90
21487;DHT22;10905;50.822;4.336;2023-04-15T05:10:03;9.40;99.90
21487;DHT22;10905;50.822;4.336;2023-04-15T05:12:28;9.40;99.90
21487;DHT22;10905;50.822;4.336;2023-04-15T05:14:54;9.50;99.90
21487;DHT22;10905;50.822;4.336;2023-04-15T05:17:20;9.50;99.90
21487;DHT22;10905;50.822;4.336;2023-04-15T05:19:46;9.50;99.90
21487;DHT22;10905;50.822;4.336;2023-04-15T05:22:11;9.50;99.90
21487;DHT22;10905;50.822;4.336;2023-04-15T05:24:37;9.50;99.90
21487;DHT22;10905;50.822;4.336;2023-04-15T05:27:03;9.60;99.90
21487;DHT22;10905;50.822;4.336;2023-04-15T05:29:29;9.60;99.90
21487;DHT22;10905;50.822;4.336;2023-04-15T05:31:55;9.60;99.90
21487;DHT22;10905;50.822;4.336;2023-04-15T05:34:21;9.70;99.90
21487;DHT22;10905;50.822;4.336;2023-04-15T05:36:47;9.50;99.90
21487;DHT22;10905;50.822;4.336;2023-04-15T05:39:12;9.50;99.90
21487;DHT22;10905;50.822;4.336;2023-04-15T05:41:38;9.60;99.90
21487;DHT22;10905;50.822;4.336;2023-04-15T05:44:04;9.50;99.90
21487;DHT22;10905;50.822;4.336;2023-04-15T05:46:30;9.60;99.90
21487;DHT22;10905;50.822;4.336;2023-04-15T05:48:56;9.60;99.90
21487;DHT22;10905;50.822;4.336;2023-04-15T05:51:21;9.60;99.90
21487;DHT22;10905;50.822;4.336;2023-04-15T05:53:47;9.60;99.90
21487;DHT22;10905;50.822;4.336;2023-04-15T05:56:12;9.60;99.90
21487;DHT22;10905;50.822;4.336;2023-04-15T05:58:38;9.80;99.90
21487;DHT22;10905;50.822;4.336;2023-04-15T06:01:04;9.90;99.90
21487;DHT22;10905;50.822;4.336;2023-04-15T06:03:30;9.90;99.90
21487;DHT22;10905;50.822;4.336;2023-04-15T06:05:55;9.90;99.90
21487;DHT22;10905;50.822;4.336;2023-04-15T06:08:21;10.00;99.90
21487;DHT22;10905;50.822;4.336;2023-04-15T06:10:47;10.20;99.90
21487;DHT22;10905;50.822;4.336;2023-04-15T06:13:12;10.20;99.90
21487;DHT22;10905;50.822;4.336;2023-04-15T06:15:38;10.20;99.90
21487;DHT22;10905;50.822;4.336;2023-04-15T06:18:04;10.20;99.90
21487;DHT22;10905;50.822;4.336;2023-04-15T06:20:29;10.10;99.90
21487;DHT22;10905;50.822;4.336;2023-04-15T06:22:55;10.10;99.90
21487;DHT22;10905;50.822;4.336;2023-04-15T06:25:21;10.20;99.90
21487;DHT22;10905;50.822;4.336;2023-04-15T06:27:47;10.30;99.90
21487;DHT22;10905;50.822;4.336;2023-04-15T06:30:13;10.30;99.90
21487;DHT22;10905;50.822;4.336;2023-04-15T06:32:38;10.50;99.90
21487;DHT22;10905;50.822;4.336;2023-04-15T06:35:04;10.60;99.90
21487;DHT22;10905;50.822;4.336;2023-04-15T06:37:30;10.60;99.90
21487;DHT22;10905;50.822;4.336;2023-04-15T06:39:57;10.70;99.90
21487;DHT22;10905;50.822;4.336;2023-04-15T06:42:22;10.80;99.90
21487;DHT22;10905;50.822;4.336;2023-04-15T06:44:48;10.90;99.90
21487;DHT22;10905;50.822;4.336;2023-04-15T06:47:14;11.00;99.90
21487;DHT22;10905;50.822;4.336;2023-04-15T06:49:40;10.80;99.90
21487;DHT22;10905;50.822;4.336;2023-04-15T06:52:07;10.70;99.90
21487;DHT22;10905;50.822;4.336;2023-04-15T06:54:33;10.70;99.90
21487;DHT22;10905;50.822;4.336;2023-04-15T06:56:58;10.80;99.90
21487;DHT22;10905;50.822;4.336;2023-04-15T06:59:24;10.90;99.90
21487;DHT22;10905;50.822;4.336;2023-04-15T07:01:50;11.00;99.90
21487;DHT22;10905;50.822;4.336;2023-04-15T07:04:16;11.00;99.90
21487;DHT22;10905;50.822;4.336;2023-04-15T07:06:42;11.10;99.90
21487;DHT22;10905;50.822;4.336;2023-04-15T07:09:07;11.20;99.90
21487;DHT22;10905;50.822;4.336;2023-04-15T07:11:33;11.10;99.90
21487;DHT22;10905;50.822;4.336;2023-04-15T07:13:58;11.20;99.90
21487;DHT22;10905;50.822;4.336;2023-04-15T07:16:24;11.20;99.90
21487;DHT22;10905;50.822;4.336;2023-04-15T07:18:50;11.20;99.90
21487;DHT22;10905;50.822;4.336;2023-04-15T07:21:16;11.60;99.90
21487;DHT22;10905;50.822;4.336;2023-04-15T07:23:42;11.70;99.90
21487;DHT22;10905;50.822;4.336;2023-04-15T07:26:08;11.90;99.90
21487;DHT22;10905;50.822;4.336;2023-04-15T07:28:35;11.80;99.90
21487;DHT22;10905;50.822;4.336;2023-04-15T07:31:01;11.70;99.90
21487;DHT22;10905;50.822;4.336;2023-04-15T07:33:26;11.80;99.90
21487;DHT22;10905;50.822;4.336;2023-04-15T07:35:52;11.90;99.90
21487;DHT22;10905;50.822;4.336;2023-04-15T07:38:18;11.80;99.90
21487;DHT22;10905;50.822;4.336;2023-04-15T07:40:43;11.80;99.90
21487;DHT22;10905;50.822;4.336;2023-04-15T07:43:09;11.90;99.90
21487;DHT22;10905;50.822;4.336;2023-04-15T07:45:35;11.70;99.90
21487;DHT22;10905;50.822;4.336;2023-04-15T07:48:01;11.70;99.90
21487;DHT22;10905;50.822;4.336;2023-04-15T07:50:27;11.60;99.90
21487;DHT22;10905;50.822;4.336;2023-04-15T07:52:53;11.70;99.90
21487;DHT22;10905;50.822;4.336;2023-04-15T07:55:19;11.60;99.90
21487;DHT22;10905;50.822;4.336;2023-04-15T07:57:47;11.50;99.90
21487;DHT22;10905;50.822;4.336;2023-04-15T08:00:13;11.40;99.90
21487;DHT22;10905;50.822;4.336;2023-04-15T08:02:40;11.30;99.90
21487;DHT22;10905;50.822;4.336;2023-04-15T08:05:08;11.20;99.90
21487;DHT22;10905;50.822;4.336;2023-04-15T08:07:34;11.20;99.90
21487;DHT22;10905;50.822;4.336;2023-04-15T08:09:59;11.10;99.90
21487;DHT22;10905;50.822;4.336;2023-04-15T08:12:25;11.20;99.90
21487;DHT22;10905;50.822;4.336;2023-04-15T08:14:51;11.10;99.90
21487;DHT22;10905;50.822;4.336;2023-04-15T08:17:17;11.20;99.90
21487;DHT22;10905;50.822;4.336;2023-04-15T08:19:42;11.30;99.90
21487;DHT22;10905;50.822;4.336;2023-04-15T08:22:09;11.40;99.90
21487;DHT22;10905;50.822;4.336;2023-04-15T08:24:36;11.40;99.90
21487;DHT22;10905;50.822;4.336;2023-04-15T08:27:03;11.50;99.90
21487;DHT22;10905;50.822;4.336;2023-04-15T08:29:30;11.30;99.90
21487;DHT22;10905;50.822;4.336;2023-04-15T08:31:56;11.40;99.90
21487;DHT22;10905;50.822;4.336;2023-04-15T08:34:22;11.60;99.90
21487;DHT22;10905;50.822;4.336;2023-04-15T08:36:48;11.60;99.90
21487;DHT22;10905;50.822;4.336;2023-04-15T08:39:14;11.70;99.90
21487;DHT22;10905;50.822;4.336;2023-04-15T08:41:46;11.70;99.90
21487;DHT22;10905;50.822;4.336;2023-04-15T08:44:13;11.70;99.90
21487;DHT22;10905;50.822;4.336;2023-04-15T08:46:40;11.70;99.90
21487;DHT22;10905;50.822;4.336;2023-04-15T08:49:10;11.70;99.90
21487;DHT22;10905;50.822;4.336;2023-04-15T08:51:42;11.90;99.90
21487;DHT22;10905;50.822;4.336;2023-04-15T08:54:08;12.00;99.90
21487;DHT22;10905;50.822;4.336;2023-04-15T08:56:35;12.20;99.90
21487;DHT22;10905;50.822;4.336;2023-04-15T08:59:02;12.40;99.90
21487;DHT22;10905;50.822;4.336;2023-04-15T09:01:28;12.60;99.90
21487;DHT22;10905;50.822;4.336;2023-04-15T09:03:55;12.80;99.90
21487;DHT22;10905;50.822;4.336;2023-04-15T09:06:21;12.90;99.90
21487;DHT22;10905;50.822;4.336;2023-04-15T09:08:48;13.00;99.90
21487;DHT22;10905;50.822;4.336;2023-04-15T09:11:15;13.10;99.90
21487;DHT22;10905;50.822;4.336;2023-04-15T09:13:42;13.30;99.90
21487;DHT22;10905;50.822;4.336;2023-04-15T09:16:08;13.20;99.90
21487;DHT22;10905;50.822;4.336;2023-04-15T09:18:36;13.10;99.90
21487;DHT22;10905;50.822;4.336;2023-04-15T09:21:10;13.20;99.90
21487;DHT22;10905;50.822;4.336;2023-04-15T09:23:37;13.10;99.90
21487;DHT22;10905;50.822;4.336;2023-04-15T09:26:04;13.20;99.90
21487;DHT22;10905;50.822;4.336;2023-04-15T09:28:30;13.30;99.90
21487;DHT22;10905;50.822;4.336;2023-04-15T09:30:57;13.40;99.90
21487;DHT22;10905;50.822;4.336;2023-04-15T09:33:24;13.60;99.90
21487;DHT22;10905;50.822;4.336;2023-04-15T09:36:04;13.70;99.90
21487;DHT22;10905;50.822;4.336;2023-04-15T09:38:30;13.70;99.90
21487;DHT22;10905;50.822;4.336;2023-04-15T09:40:57;13.90;99.90
21487;DHT22;10905;50.822;4.336;2023-04-15T09:43:37;14.00;99.90
21487;DHT22;10905;50.822;4.336;2023-04-15T09:46:03;14.10;99.90
21487;DHT22;10905;50.822;4.336;2023-04-15T09:48:30;14.00;99.90
21487;DHT22;10905;50.822;4.336;2023-04-15T09:50:59;14.10;99.90
21487;DHT22;10905;50.822;4.336;2023-04-15T09:53:26;14.20;99.90
21487;DHT22;10905;50.822;4.336;2023-04-15T09:55:53;14.40;99.90
21487;DHT22;10905;50.822;4.336;2023-04-15T09:58:21;14.50;99.90
21487;DHT22;10905;50.822;4.336;2023-04-15T10:00:48;14.50;99.90
21487;DHT22;10905;50.822;4.336;2023-04-15T10:03:20;14.50;99.90
21487;DHT22;10905;50.822;4.336;2023-04-15T10:05:50;14.40;99.90
21487;DHT22;10905;50.822;4.336;2023-04-15T10:08:18;14.30;99.90
21487;DHT22;10905;50.822;4.336;2023-04-15T10:10:45;14.20;99.90
21487;DHT22;10905;50.822;4.336;2023-04-15T10:13:17;14.40;99.90
21487;DHT22;10905;50.822;4.336;2023-04-15T10:15:44;14.50;99.90
21487;DHT22;10905;50.822;4.336;2023-04-15T10:18:14;14.50;99.90
21487;DHT22;10905;50.822;4.336;2023-04-15T10:20:41;14.50;99.90
21487;DHT22;10905;50.822;4.336;2023-04-15T10:23:08;14.60;99.90
21487;DHT22;10905;50.822;4.336;2023-04-15T10:25:34;14.70;99.90
21487;DHT22;10905;50.822;4.336;2023-04-15T10:28:00;14.80;99.90
21487;DHT22;10905;50.822;4.336;2023-04-15T10:30:27;14.70;99.90
21487;DHT22;10905;50.822;4.336;2023-04-15T10:32:53;14.70;99.90
21487;DHT22;10905;50.822;4.336;2023-04-15T10:35:20;14.80;99.90
21487;DHT22;10905;50.822;4.336;2023-04-15T10:37:46;14.80;99.90
21487;DHT22;10905;50.822;4.336;2023-04-15T10:40:29;14.60;99.90
21487;DHT22;10905;50.822;4.336;2023-04-15T10:43:02;14.70;99.90
21487;DHT22;10905;50.822;4.336;2023-04-15T10:45:37;14.70;99.90
21487;DHT22;10905;50.822;4.336;2023-04-15T10:48:05;14.80;99.90
21487;DHT22;10905;50.822;4.336;2023-04-15T10:50:32;14.90;99.90
21487;DHT22;10905;50.822;4.336;2023-04-15T10:53:01;14.90;99.90
21487;DHT22;10905;50.822;4.336;2023-04-15T10:55:31;15.00;99.90
21487;DHT22;10905;50.822;4.336;2023-04-15T10:57:58;15.00;99.90
21487;DHT22;10905;50.822;4.336;2023-04-15T11:00:29;14.90;99.90
21487;DHT22;10905;50.822;4.336;2023-04-15T11:05:50;14.90;99.90
21487;DHT22;10905;50.822;4.336;2023-04-15T11:08:17;14.90;99.90
21487;DHT22;10905;50.822;4.336;2023-04-15T11:15:39;14.90;99.90
21487;DHT22;10905;50.822;4.336;2023-04-15T11:18:08;14.90;99.90
21487;DHT22;10905;50.822;4.336;2023-04-15T11:20:35;14.80;97.80
21487;DHT22;10905;50.822;4.336;2023-04-15T11:23:01;14.80;98.30
21487;DHT22;10905;50.822;4.336;2023-04-15T11:25:28;14.90;98.30
21487;DHT22;10905;50.822;4.336;2023-04-15T11:27:55;14.80;98.80
21487;DHT22;10905;50.822;4.336;2023-04-15T11:30:25;14.80;99.10
21487;DHT22;10905;50.822;4.336;2023-04-15T11:32:53;14.90;99.90
21487;DHT22;10905;50.822;4.336;2023-04-15T11:35:19;15.00;99.90
21487;DHT22;10905;50.822;4.336;2023-04-15T11:37:45;15.10;99.90
21487;DHT22;10905;50.822;4.336;2023-04-15T11:40:12;15.20;99.90
21487;DHT22;10905;50.822;4.336;2023-04-15T11:42:38;15.30;99.90
21487;DHT22;10905;50.822;4.336;2023-04-15T11:45:10;15.20;98.60
21487;DHT22;10905;50.822;4.336;2023-04-15T11:47:37;15.30;99.90
21487;DHT22;10905;50.822;4.336;2023-04-15T11:52:54;15.50;96.20
21487;DHT22;10905;50.822;4.336;2023-04-15T11:55:20;15.50;96.30
21487;DHT22;10905;50.822;4.336;2023-04-15T11:57:45;15.50;94.60
21487;DHT22;10905;50.822;4.336;2023-04-15T12:00:12;15.50;86.50
21487;DHT22;10905;50.822;4.336;2023-04-15T12:02:38;15.40;91.00
21487;DHT22;10905;50.822;4.336;2023-04-15T12:05:07;15.30;92.90
21487;DHT22;10905;50.822;4.336;2023-04-15T12:07:56;15.30;95.00
21487;DHT22;10905;50.822;4.336;2023-04-15T12:10:19;15.40;94.60
21487;DHT22;10905;50.822;4.336;2023-04-15T12:12:48;15.30;95.30
21487;DHT22;10905;50.822;4.336;2023-04-15T12:15:14;15.40;92.80
21487;DHT22;10905;50.822;4.336;2023-04-15T12:17:39;15.60;90.60
21487;DHT22;10905;50.822;4.336;2023-04-15T12:20:06;15.60;88.80
21487;DHT22;10905;50.822;4.336;2023-04-15T12:22:36;15.70;89.60
21487;DHT22;10905;50.822;4.336;2023-04-15T12:25:02;15.60;87.70
21487;DHT22;10905;50.822;4.336;2023-04-15T12:27:28;15.70;87.90
21487;DHT22;10905;50.822;4.336;2023-04-15T12:30:03;15.80;87.90
21487;DHT22;10905;50.822;4.336;2023-04-15T12:32:29;15.90;90.60
21487;DHT22;10905;50.822;4.336;2023-04-15T12:34:59;16.10;92.10
21487;DHT22;10905;50.822;4.336;2023-04-15T12:37:24;15.90;91.60
21487;DHT22;10905;50.822;4.336;2023-04-15T12:39:50;16.00;91.90
21487;DHT22;10905;50.822;4.336;2023-04-15T12:42:17;15.80;90.40
21487;DHT22;10905;50.822;4.336;2023-04-15T12:44:43;15.60;91.00
21487;DHT22;10905;50.822;4.336;2023-04-15T12:47:09;15.70;92.30
21487;DHT22;10905;50.822;4.336;2023-04-15T12:49:36;15.80;88.50
21487;DHT22;10905;50.822;4.336;2023-04-15T12:52:02;15.80;79.10
21487;DHT22;10905;50.822;4.336;2023-04-15T12:54:29;15.80;86.30
21487;DHT22;10905;50.822;4.336;2023-04-15T12:56:56;15.80;88.60
21487;DHT22;10905;50.822;4.336;2023-04-15T12:59:22;15.90;89.40
21487;DHT22;10905;50.822;4.336;2023-04-15T13:01:48;15.90;90.40
21487;DHT22;10905;50.822;4.336;2023-04-15T13:04:14;16.10;87.80
21487;DHT22;10905;50.822;4.336;2023-04-15T13:06:40;15.90;80.00
21487;DHT22;10905;50.822;4.336;2023-04-15T13:09:06;15.70;79.70
21487;DHT22;10905;50.822;4.336;2023-04-15T13:11:32;15.60;83.20
21487;DHT22;10905;50.822;4.336;2023-04-15T13:14:05;15.60;82.60
21487;DHT22;10905;50.822;4.336;2023-04-15T13:16:32;15.60;85.40
21487;DHT22;10905;50.822;4.336;2023-04-15T13:18:59;15.80;85.10
21487;DHT22;10905;50.822;4.336;2023-04-15T13:21:24;15.90;86.90
21487;DHT22;10905;50.822;4.336;2023-04-15T13:23:51;16.00;86.70
21487;DHT22;10905;50.822;4.336;2023-04-15T13:26:17;15.90;85.30
21487;DHT22;10905;50.822;4.336;2023-04-15T13:28:43;15.80;87.80
21487;DHT22;10905;50.822;4.336;2023-04-15T13:31:09;15.80;90.00
21487;DHT22;10905;50.822;4.336;2023-04-15T13:33:34;15.90;91.20
21487;DHT22;10905;50.822;4.336;2023-04-15T13:36:00;15.80;91.80
21487;DHT22;10905;50.822;4.336;2023-04-15T13:38:26;15.80;92.70
21487;DHT22;10905;50.822;4.336;2023-04-15T13:40:52;16.00;93.40
21487;DHT22;10905;50.822;4.336;2023-04-15T13:43:17;16.10;94.90
21487;DHT22;10905;50.822;4.336;2023-04-15T13:45:43;16.10;94.40
21487;DHT22;10905;50.822;4.336;2023-04-15T13:48:09;16.00;93.70
21487;DHT22;10905;50.822;4.336;2023-04-15T13:50:34;16.00;92.80
21487;DHT22;10905;50.822;4.336;2023-04-15T13:53:00;16.20;92.80
21487;DHT22;10905;50.822;4.336;2023-04-15T13:55:26;16.20;91.30
21487;DHT22;10905;50.822;4.336;2023-04-15T13:57:52;16.40;91.70
21487;DHT22;10905;50.822;4.336;2023-04-15T14:00:17;16.40;92.70
21487;DHT22;10905;50.822;4.336;2023-04-15T14:02:43;16.40;91.20
21487;DHT22;10905;50.822;4.336;2023-04-15T14:05:09;16.40;89.60
21487;DHT22;10905;50.822;4.336;2023-04-15T14:07:35;16.40;91.00
21487;DHT22;10905;50.822;4.336;2023-04-15T14:10:01;16.30;90.40
21487;DHT22;10905;50.822;4.336;2023-04-15T14:12:26;16.00;90.00
21487;DHT22;10905;50.822;4.336;2023-04-15T14:14:52;16.10;90.80
21487;DHT22;10905;50.822;4.336;2023-04-15T14:17:18;16.40;91.10
21487;DHT22;10905;50.822;4.336;2023-04-15T14:19:44;16.40;91.70
21487;DHT22;10905;50.822;4.336;2023-04-15T14:22:09;16.30;91.80
21487;DHT22;10905;50.822;4.336;2023-04-15T14:24:35;16.30;92.20
21487;DHT22;10905;50.822;4.336;2023-04-15T14:27:01;16.20;92.80
21487;DHT22;10905;50.822;4.336;2023-04-15T14:29:27;16.20;92.60
21487;DHT22;10905;50.822;4.336;2023-04-15T14:31:53;16.20;92.80
21487;DHT22;10905;50.822;4.336;2023-04-15T14:34:21;16.20;93.20
21487;DHT22;10905;50.822;4.336;2023-04-15T14:36:49;16.30;94.00
21487;DHT22;10905;50.822;4.336;2023-04-15T14:39:15;16.30;92.60
21487;DHT22;10905;50.822;4.336;2023-04-15T14:41:41;16.10;92.00
21487;DHT22;10905;50.822;4.336;2023-04-15T14:44:06;15.80;91.70
21487;DHT22;10905;50.822;4.336;2023-04-15T14:46:34;15.90;90.50
21487;DHT22;10905;50.822;4.336;2023-04-15T14:48:59;15.90;90.90
21487;DHT22;10905;50.822;4.336;2023-04-15T14:51:25;16.20;92.30
21487;DHT22;10905;50.822;4.336;2023-04-15T14:53:51;16.40;90.80
21487;DHT22;10905;50.822;4.336;2023-04-15T14:56:16;16.10;91.30
21487;DHT22;10905;50.822;4.336;2023-04-15T14:58:42;16.00;91.90
21487;DHT22;10905;50.822;4.336;2023-04-15T15:01:09;16.00;92.10
21487;DHT22;10905;50.822;4.336;2023-04-15T15:03:34;16.30;93.50
21487;DHT22;10905;50.822;4.336;2023-04-15T15:06:00;16.40;92.80
21487;DHT22;10905;50.822;4.336;2023-04-15T15:08:26;16.60;93.00
21487;DHT22;10905;50.822;4.336;2023-04-15T15:10:51;16.80;94.00
21487;DHT22;10905;50.822;4.336;2023-04-15T15:13:17;17.00;93.60
21487;DHT22;10905;50.822;4.336;2023-04-15T15:15:43;17.10;95.10
21487;DHT22;10905;50.822;4.336;2023-04-15T15:18:09;17.10;94.40
21487;DHT22;10905;50.822;4.336;2023-04-15T15:20:35;16.90;94.30
21487;DHT22;10905;50.822;4.336;2023-04-15T15:23:01;16.70;94.70
21487;DHT22;10905;50.822;4.336;2023-04-15T15:25:27;16.70;94.90
21487;DHT22;10905;50.822;4.336;2023-04-15T15:27:53;16.70;95.10
21487;DHT22;10905;50.822;4.336;2023-04-15T15:30:18;16.80;96.80
21487;DHT22;10905;50.822;4.336;2023-04-15T15:32:44;16.60;99.00
21487;DHT22;10905;50.822;4.336;2023-04-15T15:35:10;16.40;99.90
21487;DHT22;10905;50.822;4.336;2023-04-15T15:37:36;16.50;99.90